sensor_id;sensor_type;location;lat;lon;timestamp;P1;durP1;ratioP1;P2;durP2;ratioP2
7049;SDS011;22263;52.260;10.548;2022-08-04T00:00:53;8.27;;;4.55;;
7049;SDS011;22263;52.260;10.548;2022-08-04T00:03:36;7.18;;;4.70;;
7049;SDS011;22263;52.260;10.548;2022-08-04T00:06:13;7.30;;;3.85;;
7049;SDS011;22263;52.260;10.548;2022-08-04T00:08:53;6.60;;;4.03;;
7049;SDS011;22263;52.260;10.548;2022-08-04T00:11:25;6.82;;;3.90;;
7049;SDS011;22263;52.260;10.548;2022-08-04T00:14:00;6.43;;;3.83;;
7049;SDS011;22263;52.260;10.548;2022-08-04T00:16:32;5.45;;;4.18;;
7049;SDS011;22263;52.260;10.548;2022-08-04T00:19:09;7.93;;;4.00;;
7049;SDS011;22263;52.260;10.548;2022-08-04T00:21:41;5.43;;;3.63;;
7049;SDS011;22263;52.260;10.548;2022-08-04T00:24:19;6.88;;;3.95;;
7049;SDS011;22263;52.260;10.548;2022-08-04T00:26:51;6.55;;;4.05;;
7049;SDS011;22263;52.260;10.548;2022-08-04T00:29:21;4.72;;;3.72;;
7049;SDS011;22263;52.260;10.548;2022-08-04T00:31:51;5.85;;;4.25;;
7049;SDS011;22263;52.260;10.548;2022-08-04T00:34:27;9.13;;;3.90;;
7049;SDS011;22263;52.260;10.548;2022-08-04T00:36:57;4.85;;;3.45;;
7049;SDS011;22263;52.260;10.548;2022-08-04T00:39:27;6.50;;;3.63;;
7049;SDS011;22263;52.260;10.548;2022-08-04T00:45:04;5.85;;;4.20;;
7049;SDS011;22263;52.260;10.548;2022-08-04T00:47:54;6.20;;;3.83;;
7049;SDS011;22263;52.260;10.548;2022-08-04T00:50:34;5.18;;;3.90;;
7049;SDS011;22263;52.260;10.548;2022-08-04T00:53:12;6.13;;;3.53;;
7049;SDS011;22263;52.260;10.548;2022-08-04T00:56:01;6.40;;;3.83;;
7049;SDS011;22263;52.260;10.548;2022-08-04T00:58:41;7.93;;;3.60;;
7049;SDS011;22263;52.260;10.548;2022-08-04T01:01:18;6.30;;;4.10;;
7049;SDS011;22263;52.260;10.548;2022-08-04T01:04:06;4.72;;;3.75;;
7049;SDS011;22263;52.260;10.548;2022-08-04T01:06:54;5.50;;;3.45;;
7049;SDS011;22263;52.260;10.548;2022-08-04T01:09:40;7.65;;;4.07;;
7049;SDS011;22263;52.260;10.548;2022-08-04T01:12:29;5.28;;;3.55;;
7049;SDS011;22263;52.260;10.548;2022-08-04T01:15:14;6.57;;;3.60;;
7049;SDS011;22263;52.260;10.548;2022-08-04T01:17:53;8.05;;;4.28;;
7049;SDS011;22263;52.260;10.548;2022-08-04T01:20:33;5.70;;;4.10;;
7049;SDS011;22263;52.260;10.548;2022-08-04T01:23:29;5.80;;;4.00;;
7049;SDS011;22263;52.260;10.548;2022-08-04T01:26:25;5.75;;;3.60;;
7049;SDS011;22263;52.260;10.548;2022-08-04T01:29:25;6.32;;;3.72;;
7049;SDS011;22263;52.260;10.548;2022-08-04T01:32:13;7.40;;;4.00;;
7049;SDS011;22263;52.260;10.548;2022-08-04T01:34:52;8.23;;;3.95;;
7049;SDS011;22263;52.260;10.548;2022-08-04T01:37:33;4.00;;;3.47;;
7049;SDS011;22263;52.260;10.548;2022-08-04T01:40:13;5.93;;;3.60;;
7049;SDS011;22263;52.260;10.548;2022-08-04T01:42:44;5.63;;;3.20;;
7049;SDS011;22263;52.260;10.548;2022-08-04T01:45:16;5.45;;;3.22;;
7049;SDS011;22263;52.260;10.548;2022-08-04T01:47:47;6.28;;;3.10;;
7049;SDS011;22263;52.260;10.548;2022-08-04T01:50:19;4.90;;;3.50;;
7049;SDS011;22263;52.260;10.548;2022-08-04T01:52:51;5.38;;;3.47;;
7049;SDS011;22263;52.260;10.548;2022-08-04T01:55:21;5.50;;;3.42;;
7049;SDS011;22263;52.260;10.548;2022-08-04T01:58:11;7.63;;;4.18;;
7049;SDS011;22263;52.260;10.548;2022-08-04T02:00:46;4.25;;;3.38;;
7049;SDS011;22263;52.260;10.548;2022-08-04T02:03:23;5.80;;;3.35;;
7049;SDS011;22263;52.260;10.548;2022-08-04T02:06:17;5.40;;;3.55;;
7049;SDS011;22263;52.260;10.548;2022-08-04T02:08:55;3.92;;;3.40;;
7049;SDS011;22263;52.260;10.548;2022-08-04T02:11:31;5.53;;;3.58;;
7049;SDS011;22263;52.260;10.548;2022-08-04T02:14:01;4.97;;;3.35;;
7049;SDS011;22263;52.260;10.548;2022-08-04T02:16:42;4.78;;;3.65;;
7049;SDS011;22263;52.260;10.548;2022-08-04T02:19:21;7.30;;;3.30;;
7049;SDS011;22263;52.260;10.548;2022-08-04T02:21:56;3.78;;;3.13;;
7049;SDS011;22263;52.260;10.548;2022-08-04T02:24:30;5.25;;;3.58;;
7049;SDS011;22263;52.260;10.548;2022-08-04T02:27:00;4.93;;;3.80;;
7049;SDS011;22263;52.260;10.548;2022-08-04T02:29:33;6.10;;;3.50;;
7049;SDS011;22263;52.260;10.548;2022-08-04T02:32:12;7.82;;;3.97;;
7049;SDS011;22263;52.260;10.548;2022-08-04T02:34:48;4.50;;;3.90;;
7049;SDS011;22263;52.260;10.548;2022-08-04T02:37:22;5.22;;;4.00;;
7049;SDS011;22263;52.260;10.548;2022-08-04T02:39:54;4.35;;;3.28;;
7049;SDS011;22263;52.260;10.548;2022-08-04T02:42:27;3.83;;;3.42;;
7049;SDS011;22263;52.260;10.548;2022-08-04T02:44:58;4.45;;;4.05;;
7049;SDS011;22263;52.260;10.548;2022-08-04T02:47:31;6.43;;;3.60;;
7049;SDS011;22263;52.260;10.548;2022-08-04T02:50:22;4.63;;;3.25;;
7049;SDS011;22263;52.260;10.548;2022-08-04T02:52:55;3.75;;;3.45;;
7049;SDS011;22263;52.260;10.548;2022-08-04T02:55:28;4.88;;;3.45;;
7049;SDS011;22263;52.260;10.548;2022-08-04T02:57:58;6.22;;;4.30;;
7049;SDS011;22263;52.260;10.548;2022-08-04T03:00:32;5.28;;;4.55;;
7049;SDS011;22263;52.260;10.548;2022-08-04T03:03:12;4.65;;;3.80;;
7049;SDS011;22263;52.260;10.548;2022-08-04T03:12:07;5.97;;;4.30;;
7049;SDS011;22263;52.260;10.548;2022-08-04T03:14:57;4.53;;;3.80;;
7049;SDS011;22263;52.260;10.548;2022-08-04T03:17:52;6.97;;;4.25;;
7049;SDS011;22263;52.260;10.548;2022-08-04T03:20:54;5.10;;;4.20;;
7049;SDS011;22263;52.260;10.548;2022-08-04T03:23:59;6.05;;;4.65;;
7049;SDS011;22263;52.260;10.548;2022-08-04T03:26:50;5.03;;;4.22;;
7049;SDS011;22263;52.260;10.548;2022-08-04T03:29:34;6.13;;;4.28;;
7049;SDS011;22263;52.260;10.548;2022-08-04T03:32:33;6.85;;;4.78;;
7049;SDS011;22263;52.260;10.548;2022-08-04T03:35:41;7.90;;;4.07;;
7049;SDS011;22263;52.260;10.548;2022-08-04T03:41:47;4.28;;;3.40;;
7049;SDS011;22263;52.260;10.548;2022-08-04T03:47:56;7.75;;;3.97;;
7049;SDS011;22263;52.260;10.548;2022-08-04T03:50:46;9.50;;;4.22;;
7049;SDS011;22263;52.260;10.548;2022-08-04T03:54:08;6.15;;;3.80;;
7049;SDS011;22263;52.260;10.548;2022-08-04T03:57:14;5.15;;;4.00;;
7049;SDS011;22263;52.260;10.548;2022-08-04T04:00:02;7.50;;;4.10;;
7049;SDS011;22263;52.260;10.548;2022-08-04T04:08:36;6.28;;;3.78;;
7049;SDS011;22263;52.260;10.548;2022-08-04T04:11:40;6.25;;;3.85;;
7049;SDS011;22263;52.260;10.548;2022-08-04T04:14:30;9.93;;;4.18;;
7049;SDS011;22263;52.260;10.548;2022-08-04T04:17:29;11.30;;;6.50;;
7049;SDS011;22263;52.260;10.548;2022-08-04T04:20:21;5.25;;;3.75;;
7049;SDS011;22263;52.260;10.548;2022-08-04T04:22:59;7.90;;;4.28;;
7049;SDS011;22263;52.260;10.548;2022-08-04T04:25:40;7.03;;;3.88;;
7049;SDS011;22263;52.260;10.548;2022-08-04T04:28:31;7.07;;;3.83;;
7049;SDS011;22263;52.260;10.548;2022-08-04T04:34:15;7.22;;;4.50;;
7049;SDS011;22263;52.260;10.548;2022-08-04T04:37:00;7.90;;;4.53;;
7049;SDS011;22263;52.260;10.548;2022-08-04T04:39:50;8.48;;;5.80;;
7049;SDS011;22263;52.260;10.548;2022-08-04T04:42:41;12.98;;;6.47;;
7049;SDS011;22263;52.260;10.548;2022-08-04T04:45:39;12.82;;;6.57;;
7049;SDS011;22263;52.260;10.548;2022-08-04T04:48:16;8.10;;;4.85;;
7049;SDS011;22263;52.260;10.548;2022-08-04T04:51:04;9.15;;;4.65;;
7049;SDS011;22263;52.260;10.548;2022-08-04T04:53:41;8.00;;;4.88;;
7049;SDS011;22263;52.260;10.548;2022-08-04T04:56:26;8.75;;;5.05;;
7049;SDS011;22263;52.260;10.548;2022-08-04T04:59:02;8.77;;;4.55;;
7049;SDS011;22263;52.260;10.548;2022-08-04T05:01:49;7.43;;;4.80;;
7049;SDS011;22263;52.260;10.548;2022-08-04T05:04:59;7.38;;;4.20;;
7049;SDS011;22263;52.260;10.548;2022-08-04T05:07:54;7.53;;;5.53;;
7049;SDS011;22263;52.260;10.548;2022-08-04T05:10:58;10.32;;;4.63;;
7049;SDS011;22263;52.260;10.548;2022-08-04T05:13:41;8.60;;;4.80;;
7049;SDS011;22263;52.260;10.548;2022-08-04T05:16:35;5.57;;;4.35;;
7049;SDS011;22263;52.260;10.548;2022-08-04T05:19:15;7.65;;;4.13;;
7049;SDS011;22263;52.260;10.548;2022-08-04T05:21:52;7.97;;;4.43;;
7049;SDS011;22263;52.260;10.548;2022-08-04T05:24:29;4.78;;;4.25;;
7049;SDS011;22263;52.260;10.548;2022-08-04T05:27:04;6.63;;;4.60;;
7049;SDS011;22263;52.260;10.548;2022-08-04T05:29:43;6.13;;;4.50;;
7049;SDS011;22263;52.260;10.548;2022-08-04T05:32:19;10.63;;;5.20;;
7049;SDS011;22263;52.260;10.548;2022-08-04T05:34:56;7.38;;;4.65;;
7049;SDS011;22263;52.260;10.548;2022-08-04T05:37:31;6.95;;;5.28;;
7049;SDS011;22263;52.260;10.548;2022-08-04T05:40:03;7.45;;;4.30;;
7049;SDS011;22263;52.260;10.548;2022-08-04T05:42:35;7.18;;;4.93;;
7049;SDS011;22263;52.260;10.548;2022-08-04T05:45:07;14.15;;;5.40;;
7049;SDS011;22263;52.260;10.548;2022-08-04T05:47:37;9.45;;;5.50;;
7049;SDS011;22263;52.260;10.548;2022-08-04T05:50:10;13.00;;;4.72;;
7049;SDS011;22263;52.260;10.548;2022-08-04T05:52:41;12.50;;;4.97;;
7049;SDS011;22263;52.260;10.548;2022-08-04T05:55:11;5.95;;;3.75;;
7049;SDS011;22263;52.260;10.548;2022-08-04T05:58:01;4.95;;;3.95;;
7049;SDS011;22263;52.260;10.548;2022-08-04T06:00:31;6.30;;;3.90;;
7049;SDS011;22263;52.260;10.548;2022-08-04T06:03:07;7.72;;;3.72;;
7049;SDS011;22263;52.260;10.548;2022-08-04T06:05:40;7.78;;;3.95;;
7049;SDS011;22263;52.260;10.548;2022-08-04T06:08:10;6.40;;;4.10;;
7049;SDS011;22263;52.260;10.548;2022-08-04T06:10:40;5.68;;;3.88;;
7049;SDS011;22263;52.260;10.548;2022-08-04T06:13:13;8.05;;;3.90;;
7049;SDS011;22263;52.260;10.548;2022-08-04T06:16:06;4.78;;;3.40;;
7049;SDS011;22263;52.260;10.548;2022-08-04T06:18:56;9.93;;;3.70;;
7049;SDS011;22263;52.260;10.548;2022-08-04T06:21:51;6.40;;;3.47;;
7049;SDS011;22263;52.260;10.548;2022-08-04T06:24:25;7.55;;;3.55;;
7049;SDS011;22263;52.260;10.548;2022-08-04T06:26:56;4.13;;;3.30;;
7049;SDS011;22263;52.260;10.548;2022-08-04T06:29:29;6.72;;;3.42;;
7049;SDS011;22263;52.260;10.548;2022-08-04T06:32:02;5.75;;;3.42;;
7049;SDS011;22263;52.260;10.548;2022-08-04T06:34:59;5.43;;;3.20;;
7049;SDS011;22263;52.260;10.548;2022-08-04T06:37:35;5.22;;;2.80;;
7049;SDS011;22263;52.260;10.548;2022-08-04T06:40:10;6.82;;;3.25;;
7049;SDS011;22263;52.260;10.548;2022-08-04T06:42:57;3.97;;;2.75;;
7049;SDS011;22263;52.260;10.548;2022-08-04T06:45:29;6.28;;;2.88;;
7049;SDS011;22263;52.260;10.548;2022-08-04T06:48:01;5.18;;;3.22;;
7049;SDS011;22263;52.260;10.548;2022-08-04T06:50:33;3.22;;;2.72;;
7049;SDS011;22263;52.260;10.548;2022-08-04T06:53:26;5.10;;;3.10;;
7049;SDS011;22263;52.260;10.548;2022-08-04T06:55:56;3.78;;;2.95;;
7049;SDS011;22263;52.260;10.548;2022-08-04T06:58:31;5.20;;;3.03;;
7049;SDS011;22263;52.260;10.548;2022-08-04T07:01:01;8.65;;;3.47;;
7049;SDS011;22263;52.260;10.548;2022-08-04T07:03:32;9.20;;;3.15;;
7049;SDS011;22263;52.260;10.548;2022-08-04T07:06:03;3.78;;;2.58;;
7049;SDS011;22263;52.260;10.548;2022-08-04T07:08:42;7.90;;;2.70;;
7049;SDS011;22263;52.260;10.548;2022-08-04T07:11:12;6.85;;;2.67;;
7049;SDS011;22263;52.260;10.548;2022-08-04T07:13:45;4.22;;;2.45;;
7049;SDS011;22263;52.260;10.548;2022-08-04T07:16:17;6.68;;;2.67;;
7049;SDS011;22263;52.260;10.548;2022-08-04T07:18:56;6.22;;;2.25;;
7049;SDS011;22263;52.260;10.548;2022-08-04T07:21:36;4.88;;;2.60;;
7049;SDS011;22263;52.260;10.548;2022-08-04T07:24:33;2.47;;;2.20;;
7049;SDS011;22263;52.260;10.548;2022-08-04T07:27:07;3.90;;;2.75;;
7049;SDS011;22263;52.260;10.548;2022-08-04T07:29:37;5.28;;;2.35;;
7049;SDS011;22263;52.260;10.548;2022-08-04T07:32:09;4.53;;;2.67;;
7049;SDS011;22263;52.260;10.548;2022-08-04T07:34:39;3.13;;;2.50;;
7049;SDS011;22263;52.260;10.548;2022-08-04T07:37:15;6.20;;;2.30;;
7049;SDS011;22263;52.260;10.548;2022-08-04T07:39:47;4.40;;;2.28;;
7049;SDS011;22263;52.260;10.548;2022-08-04T07:42:17;7.30;;;2.20;;
7049;SDS011;22263;52.260;10.548;2022-08-04T07:44:48;5.18;;;2.40;;
7049;SDS011;22263;52.260;10.548;2022-08-04T07:47:17;3.50;;;2.30;;
7049;SDS011;22263;52.260;10.548;2022-08-04T07:49:50;4.55;;;2.30;;
7049;SDS011;22263;52.260;10.548;2022-08-04T07:52:23;3.70;;;2.95;;
7049;SDS011;22263;52.260;10.548;2022-08-04T07:54:56;2.92;;;2.25;;
7049;SDS011;22263;52.260;10.548;2022-08-04T07:57:26;2.75;;;2.30;;
7049;SDS011;22263;52.260;10.548;2022-08-04T08:00:08;3.85;;;2.38;;
7049;SDS011;22263;52.260;10.548;2022-08-04T08:02:40;3.30;;;2.10;;
7049;SDS011;22263;52.260;10.548;2022-08-04T08:05:12;12.98;;;2.40;;
7049;SDS011;22263;52.260;10.548;2022-08-04T08:07:44;7.85;;;2.42;;
7049;SDS011;22263;52.260;10.548;2022-08-04T08:10:22;4.68;;;2.22;;
7049;SDS011;22263;52.260;10.548;2022-08-04T08:12:52;3.33;;;2.10;;
7049;SDS011;22263;52.260;10.548;2022-08-04T08:15:22;4.20;;;2.15;;
7049;SDS011;22263;52.260;10.548;2022-08-04T08:17:53;4.45;;;2.20;;
7049;SDS011;22263;52.260;10.548;2022-08-04T08:20:26;2.45;;;2.20;;
7049;SDS011;22263;52.260;10.548;2022-08-04T08:23:00;2.75;;;2.25;;
7049;SDS011;22263;52.260;10.548;2022-08-04T08:25:33;4.20;;;2.35;;
7049;SDS011;22263;52.260;10.548;2022-08-04T08:28:03;2.40;;;2.15;;
7049;SDS011;22263;52.260;10.548;2022-08-04T08:30:33;3.47;;;2.30;;
7049;SDS011;22263;52.260;10.548;2022-08-04T08:33:07;2.40;;;2.20;;
7049;SDS011;22263;52.260;10.548;2022-08-04T08:35:43;5.20;;;2.35;;
7049;SDS011;22263;52.260;10.548;2022-08-04T08:38:26;3.28;;;2.22;;
7049;SDS011;22263;52.260;10.548;2022-08-04T08:41:17;4.22;;;2.20;;
7049;SDS011;22263;52.260;10.548;2022-08-04T08:44:00;6.72;;;2.45;;
7049;SDS011;22263;52.260;10.548;2022-08-04T08:46:59;3.33;;;2.50;;
7049;SDS011;22263;52.260;10.548;2022-08-04T08:49:50;5.32;;;2.28;;
7049;SDS011;22263;52.260;10.548;2022-08-04T08:52:37;3.55;;;1.85;;
7049;SDS011;22263;52.260;10.548;2022-08-04T08:55:28;2.80;;;2.30;;
7049;SDS011;22263;52.260;10.548;2022-08-04T09:01:15;4.25;;;1.90;;
7049;SDS011;22263;52.260;10.548;2022-08-04T09:04:11;4.78;;;2.20;;
7049;SDS011;22263;52.260;10.548;2022-08-04T09:07:04;3.70;;;2.38;;
7049;SDS011;22263;52.260;10.548;2022-08-04T09:09:52;4.13;;;1.85;;
7049;SDS011;22263;52.260;10.548;2022-08-04T09:12:32;7.13;;;2.17;;
7049;SDS011;22263;52.260;10.548;2022-08-04T09:15:10;2.38;;;1.88;;
7049;SDS011;22263;52.260;10.548;2022-08-04T09:17:47;2.70;;;1.77;;
7049;SDS011;22263;52.260;10.548;2022-08-04T09:20:21;3.20;;;2.15;;
7049;SDS011;22263;52.260;10.548;2022-08-04T09:23:05;3.90;;;2.10;;
7049;SDS011;22263;52.260;10.548;2022-08-04T09:25:46;8.68;;;2.00;;
7049;SDS011;22263;52.260;10.548;2022-08-04T09:28:21;3.47;;;2.00;;
7049;SDS011;22263;52.260;10.548;2022-08-04T09:31:12;2.42;;;2.00;;
7049;SDS011;22263;52.260;10.548;2022-08-04T09:33:49;3.85;;;2.00;;
7049;SDS011;22263;52.260;10.548;2022-08-04T09:36:31;2.13;;;1.92;;
7049;SDS011;22263;52.260;10.548;2022-08-04T09:39:07;4.82;;;2.88;;
7049;SDS011;22263;52.260;10.548;2022-08-04T09:41:45;2.45;;;2.25;;
7049;SDS011;22263;52.260;10.548;2022-08-04T09:44:26;4.90;;;2.25;;
7049;SDS011;22263;52.260;10.548;2022-08-04T09:47:19;2.95;;;2.00;;
7049;SDS011;22263;52.260;10.548;2022-08-04T09:50:10;3.92;;;2.17;;
7049;SDS011;22263;52.260;10.548;2022-08-04T09:52:47;4.38;;;2.65;;
7049;SDS011;22263;52.260;10.548;2022-08-04T09:55:28;2.72;;;2.20;;
7049;SDS011;22263;52.260;10.548;2022-08-04T09:58:25;2.65;;;2.10;;
7049;SDS011;22263;52.260;10.548;2022-08-04T10:01:08;3.50;;;2.15;;
7049;SDS011;22263;52.260;10.548;2022-08-04T10:03:49;3.30;;;2.20;;
7049;SDS011;22263;52.260;10.548;2022-08-04T10:09:20;2.38;;;2.17;;
7049;SDS011;22263;52.260;10.548;2022-08-04T10:12:07;2.22;;;1.92;;
7049;SDS011;22263;52.260;10.548;2022-08-04T10:14:47;5.22;;;2.10;;
7049;SDS011;22263;52.260;10.548;2022-08-04T10:17:25;2.50;;;2.20;;
7049;SDS011;22263;52.260;10.548;2022-08-04T10:20:19;2.45;;;2.10;;
7049;SDS011;22263;52.260;10.548;2022-08-04T10:23:19;2.78;;;2.20;;
7049;SDS011;22263;52.260;10.548;2022-08-04T10:26:26;3.28;;;2.35;;
7049;SDS011;22263;52.260;10.548;2022-08-04T10:29:01;6.20;;;2.42;;
7049;SDS011;22263;52.260;10.548;2022-08-04T10:31:34;3.60;;;2.30;;
7049;SDS011;22263;52.260;10.548;2022-08-04T10:34:19;5.32;;;2.33;;
7049;SDS011;22263;52.260;10.548;2022-08-04T10:36:56;7.00;;;2.60;;
7049;SDS011;22263;52.260;10.548;2022-08-04T10:39:45;2.53;;;2.30;;
7049;SDS011;22263;52.260;10.548;2022-08-04T10:42:35;10.95;;;2.55;;
7049;SDS011;22263;52.260;10.548;2022-08-04T10:45:09;2.53;;;2.30;;
7049;SDS011;22263;52.260;10.548;2022-08-04T10:47:49;3.92;;;1.98;;
7049;SDS011;22263;52.260;10.548;2022-08-04T10:50:26;4.43;;;2.30;;
7049;SDS011;22263;52.260;10.548;2022-08-04T10:52:59;3.85;;;2.20;;
7049;SDS011;22263;52.260;10.548;2022-08-04T10:55:40;3.88;;;2.10;;
7049;SDS011;22263;52.260;10.548;2022-08-04T10:58:35;2.03;;;1.92;;
7049;SDS011;22263;52.260;10.548;2022-08-04T11:01:14;3.28;;;2.35;;
7049;SDS011;22263;52.260;10.548;2022-08-04T11:04:14;4.97;;;2.30;;
7049;SDS011;22263;52.260;10.548;2022-08-04T11:06:53;3.90;;;2.35;;
7049;SDS011;22263;52.260;10.548;2022-08-04T11:09:24;3.78;;;2.38;;
7049;SDS011;22263;52.260;10.548;2022-08-04T11:12:00;2.30;;;2.10;;
7049;SDS011;22263;52.260;10.548;2022-08-04T11:14:35;2.50;;;2.30;;
7049;SDS011;22263;52.260;10.548;2022-08-04T11:17:10;4.57;;;2.33;;
7049;SDS011;22263;52.260;10.548;2022-08-04T11:19:49;4.90;;;2.25;;
7049;SDS011;22263;52.260;10.548;2022-08-04T11:22:49;3.65;;;2.40;;
7049;SDS011;22263;52.260;10.548;2022-08-04T11:25:27;4.30;;;2.40;;
7049;SDS011;22263;52.260;10.548;2022-08-04T11:28:06;4.55;;;2.47;;
7049;SDS011;22263;52.260;10.548;2022-08-04T11:30:43;2.40;;;2.20;;
7049;SDS011;22263;52.260;10.548;2022-08-04T11:33:24;3.42;;;2.20;;
7049;SDS011;22263;52.260;10.548;2022-08-04T11:36:04;2.38;;;2.00;;
7049;SDS011;22263;52.260;10.548;2022-08-04T11:38:43;5.53;;;2.50;;
7049;SDS011;22263;52.260;10.548;2022-08-04T11:41:18;2.00;;;1.80;;
7049;SDS011;22263;52.260;10.548;2022-08-04T11:43:57;5.38;;;2.10;;
7049;SDS011;22263;52.260;10.548;2022-08-04T11:46:39;2.78;;;1.92;;
7049;SDS011;22263;52.260;10.548;2022-08-04T11:49:14;1.98;;;1.88;;
7049;SDS011;22263;52.260;10.548;2022-08-04T11:51:52;4.70;;;2.17;;
7049;SDS011;22263;52.260;10.548;2022-08-04T11:54:24;3.35;;;2.30;;
7049;SDS011;22263;52.260;10.548;2022-08-04T11:56:54;3.25;;;2.33;;
7049;SDS011;22263;52.260;10.548;2022-08-04T11:59:26;3.83;;;2.50;;
7049;SDS011;22263;52.260;10.548;2022-08-04T12:02:05;3.83;;;2.38;;
7049;SDS011;22263;52.260;10.548;2022-08-04T12:04:49;6.13;;;2.30;;
7049;SDS011;22263;52.260;10.548;2022-08-04T12:07:28;4.40;;;2.10;;
7049;SDS011;22263;52.260;10.548;2022-08-04T12:10:14;2.13;;;1.90;;
7049;SDS011;22263;52.260;10.548;2022-08-04T12:13:09;2.83;;;1.98;;
7049;SDS011;22263;52.260;10.548;2022-08-04T12:15:55;3.58;;;2.08;;
7049;SDS011;22263;52.260;10.548;2022-08-04T12:18:44;2.00;;;1.90;;
7049;SDS011;22263;52.260;10.548;2022-08-04T12:21:22;3.53;;;2.05;;
7049;SDS011;22263;52.260;10.548;2022-08-04T12:23:59;5.30;;;2.10;;
7049;SDS011;22263;52.260;10.548;2022-08-04T12:26:33;4.13;;;2.33;;
7049;SDS011;22263;52.260;10.548;2022-08-04T12:29:08;4.22;;;2.35;;
7049;SDS011;22263;52.260;10.548;2022-08-04T12:31:44;3.17;;;2.10;;
7049;SDS011;22263;52.260;10.548;2022-08-04T12:34:21;2.33;;;2.10;;
7049;SDS011;22263;52.260;10.548;2022-08-04T12:37:01;2.60;;;2.05;;
7049;SDS011;22263;52.260;10.548;2022-08-04T12:39:32;2.10;;;1.95;;
7049;SDS011;22263;52.260;10.548;2022-08-04T12:42:28;4.03;;;2.13;;
7049;SDS011;22263;52.260;10.548;2022-08-04T12:45:21;4.05;;;2.30;;
7049;SDS011;22263;52.260;10.548;2022-08-04T12:47:55;2.45;;;2.13;;
7049;SDS011;22263;52.260;10.548;2022-08-04T12:50:26;2.90;;;2.30;;
7049;SDS011;22263;52.260;10.548;2022-08-04T12:52:57;5.25;;;2.03;;
7049;SDS011;22263;52.260;10.548;2022-08-04T12:55:29;2.28;;;2.08;;
7049;SDS011;22263;52.260;10.548;2022-08-04T12:58:03;2.58;;;2.30;;
7049;SDS011;22263;52.260;10.548;2022-08-04T13:01:02;2.47;;;2.10;;
7049;SDS011;22263;52.260;10.548;2022-08-04T13:03:58;3.63;;;2.55;;
7049;SDS011;22263;52.260;10.548;2022-08-04T13:06:30;4.05;;;3.05;;
7049;SDS011;22263;52.260;10.548;2022-08-04T13:09:04;4.75;;;2.40;;
7049;SDS011;22263;52.260;10.548;2022-08-04T13:11:45;2.33;;;2.13;;
7049;SDS011;22263;52.260;10.548;2022-08-04T13:14:19;3.90;;;2.22;;
7049;SDS011;22263;52.260;10.548;2022-08-04T13:16:56;4.60;;;2.40;;
7049;SDS011;22263;52.260;10.548;2022-08-04T13:19:32;3.03;;;2.20;;
7049;SDS011;22263;52.260;10.548;2022-08-04T13:22:06;4.97;;;2.42;;
7049;SDS011;22263;52.260;10.548;2022-08-04T13:24:41;3.80;;;2.45;;
7049;SDS011;22263;52.260;10.548;2022-08-04T13:27:34;4.50;;;2.80;;
7049;SDS011;22263;52.260;10.548;2022-08-04T13:30:16;5.30;;;2.30;;
7049;SDS011;22263;52.260;10.548;2022-08-04T13:32:51;3.38;;;2.20;;
7049;SDS011;22263;52.260;10.548;2022-08-04T13:35:28;4.10;;;2.15;;
7049;SDS011;22263;52.260;10.548;2022-08-04T13:38:23;3.53;;;2.15;;
7049;SDS011;22263;52.260;10.548;2022-08-04T13:40:54;3.45;;;2.20;;
7049;SDS011;22263;52.260;10.548;2022-08-04T13:43:27;2.25;;;2.05;;
7049;SDS011;22263;52.260;10.548;2022-08-04T13:46:19;3.53;;;2.20;;
7049;SDS011;22263;52.260;10.548;2022-08-04T13:49:00;4.00;;;2.30;;
7049;SDS011;22263;52.260;10.548;2022-08-04T13:51:59;3.65;;;2.20;;
7049;SDS011;22263;52.260;10.548;2022-08-04T13:54:41;3.92;;;2.20;;
7049;SDS011;22263;52.260;10.548;2022-08-04T13:57:20;4.63;;;2.22;;
7049;SDS011;22263;52.260;10.548;2022-08-04T13:59:59;3.75;;;2.50;;
7049;SDS011;22263;52.260;10.548;2022-08-04T14:02:39;4.68;;;2.40;;
7049;SDS011;22263;52.260;10.548;2022-08-04T14:05:14;3.60;;;2.20;;
7049;SDS011;22263;52.260;10.548;2022-08-04T14:07:56;2.50;;;2.30;;
7049;SDS011;22263;52.260;10.548;2022-08-04T14:10:36;4.25;;;2.22;;
7049;SDS011;22263;52.260;10.548;2022-08-04T14:13:07;4.68;;;2.75;;
7049;SDS011;22263;52.260;10.548;2022-08-04T14:15:39;6.28;;;2.55;;
7049;SDS011;22263;52.260;10.548;2022-08-04T14:18:30;4.13;;;2.47;;
7049;SDS011;22263;52.260;10.548;2022-08-04T14:21:01;4.30;;;2.60;;
7049;SDS011;22263;52.260;10.548;2022-08-04T14:24:08;4.65;;;2.33;;
7049;SDS011;22263;52.260;10.548;2022-08-04T14:26:38;3.58;;;2.42;;
7049;SDS011;22263;52.260;10.548;2022-08-04T14:29:08;3.38;;;2.17;;
7049;SDS011;22263;52.260;10.548;2022-08-04T14:31:59;2.75;;;2.10;;
7049;SDS011;22263;52.260;10.548;2022-08-04T14:34:39;2.67;;;2.13;;
7049;SDS011;22263;52.260;10.548;2022-08-04T14:37:12;2.90;;;2.20;;
7049;SDS011;22263;52.260;10.548;2022-08-04T14:39:51;3.85;;;2.17;;
7049;SDS011;22263;52.260;10.548;2022-08-04T14:42:42;4.50;;;2.20;;
7049;SDS011;22263;52.260;10.548;2022-08-04T14:45:28;3.80;;;2.30;;
7049;SDS011;22263;52.260;10.548;2022-08-04T14:48:05;2.38;;;2.17;;
7049;SDS011;22263;52.260;10.548;2022-08-04T14:50:38;2.42;;;2.17;;
7049;SDS011;22263;52.260;10.548;2022-08-04T14:53:09;2.78;;;2.40;;
7049;SDS011;22263;52.260;10.548;2022-08-04T14:55:45;3.25;;;2.30;;
7049;SDS011;22263;52.260;10.548;2022-08-04T14:58:22;4.70;;;2.53;;
7049;SDS011;22263;52.260;10.548;2022-08-04T15:01:04;2.30;;;2.10;;
7049;SDS011;22263;52.260;10.548;2022-08-04T15:04:55;2.88;;;2.50;;
7049;SDS011;22263;52.260;10.548;2022-08-04T15:06:54;3.92;;;2.22;;
7049;SDS011;22263;52.260;10.548;2022-08-04T15:13:09;4.15;;;2.03;;
7049;SDS011;22263;52.260;10.548;2022-08-04T15:15:40;6.32;;;2.47;;
7049;SDS011;22263;52.260;10.548;2022-08-04T15:18:54;2.47;;;2.28;;
7049;SDS011;22263;52.260;10.548;2022-08-04T15:21:26;2.75;;;2.30;;
7049;SDS011;22263;52.260;10.548;2022-08-04T15:23:59;3.33;;;2.72;;
7049;SDS011;22263;52.260;10.548;2022-08-04T15:26:30;3.13;;;2.63;;
7049;SDS011;22263;52.260;10.548;2022-08-04T15:29:10;2.95;;;2.50;;
7049;SDS011;22263;52.260;10.548;2022-08-04T15:31:43;2.90;;;2.38;;
7049;SDS011;22263;52.260;10.548;2022-08-04T15:34:46;4.00;;;2.65;;
7049;SDS011;22263;52.260;10.548;2022-08-04T15:37:17;4.53;;;2.30;;
7049;SDS011;22263;52.260;10.548;2022-08-04T15:39:53;3.40;;;2.28;;
7049;SDS011;22263;52.260;10.548;2022-08-04T15:42:34;4.38;;;2.03;;
7049;SDS011;22263;52.260;10.548;2022-08-04T15:45:15;5.22;;;2.75;;
7049;SDS011;22263;52.260;10.548;2022-08-04T15:56:58;3.03;;;2.20;;
7049;SDS011;22263;52.260;10.548;2022-08-04T16:05:36;4.00;;;2.97;;
7049;SDS011;22263;52.260;10.548;2022-08-04T16:08:09;3.58;;;3.25;;
7049;SDS011;22263;52.260;10.548;2022-08-04T16:10:40;2.70;;;2.50;;
7049;SDS011;22263;52.260;10.548;2022-08-04T16:13:12;4.03;;;2.70;;
7049;SDS011;22263;52.260;10.548;2022-08-04T16:15:46;4.07;;;2.88;;
7049;SDS011;22263;52.260;10.548;2022-08-04T16:18:21;3.03;;;2.63;;
7049;SDS011;22263;52.260;10.548;2022-08-04T16:21:06;2.97;;;2.30;;
7049;SDS011;22263;52.260;10.548;2022-08-04T16:23:49;3.42;;;2.42;;
7049;SDS011;22263;52.260;10.548;2022-08-04T16:26:44;3.45;;;2.72;;
7049;SDS011;22263;52.260;10.548;2022-08-04T16:32:13;3.67;;;2.33;;
7049;SDS011;22263;52.260;10.548;2022-08-04T16:34:50;2.65;;;2.25;;
7049;SDS011;22263;52.260;10.548;2022-08-04T16:37:23;3.28;;;2.20;;
7049;SDS011;22263;52.260;10.548;2022-08-04T16:43:00;3.10;;;2.63;;
7049;SDS011;22263;52.260;10.548;2022-08-04T16:48:20;4.00;;;3.30;;
7049;SDS011;22263;52.260;10.548;2022-08-04T16:51:02;3.55;;;2.38;;
7049;SDS011;22263;52.260;10.548;2022-08-04T16:53:33;4.82;;;2.33;;
7049;SDS011;22263;52.260;10.548;2022-08-04T16:56:28;4.53;;;2.38;;
7049;SDS011;22263;52.260;10.548;2022-08-04T16:59:07;3.75;;;2.60;;
7049;SDS011;22263;52.260;10.548;2022-08-04T17:01:37;4.07;;;2.30;;
7049;SDS011;22263;52.260;10.548;2022-08-04T17:04:14;3.58;;;2.35;;